Palo Alto, CA

11:25 PM PDT on May 04, 2015 (GMT -0700)
Old Palo Alto (Waverley St) | | Change Station
CLOSE
Current Station
Personal Weather Station
Location: Palo Alto, CA
Elevation: 27 ft
Nearby Weather Stations

Elev 27 ft 37.44 °N, 122.14 °W | Updated 8 seconds ago

Clear
Clear
49.1 °F
Feels Like 49 °F
N
0.4
Wind Variable Wind from West
Gusts 1.4 mph

Today
High -- | Low -- °F
--% Chance of Precip.
Yesterday
High -- | Low -- °F
Precip. -- in
6:10 AM 8:01 PM
Full, 99% visible
Pressure 30.00 in
Visibility 10.0 miles
Clouds Clear
Windchill 49 °F
Dew Point 43 °F
Humidity 80%
Rainfall in
Snow Depth Not available.
UV 0 out of 12
Pollen 5.80 out of 12
Air Quality Not available.
Flu Activity Sporadic
METAR KNUQ 050556Z 26004KT 10SM CLR 12/07 A3000 RMK AO2 SLP159 T01170067 10183 20111 50005

More Conditions Fewer Conditions

Pressure 30.00 in
Visibility 10.0 miles
Clouds Clear
Windchill 49 °F
Dew Point 43 °F
Humidity 80%
Rainfall in
Snow Depth Not available.
UV 0 out of 12
Pollen 5.80 out of 12
Air Quality Not available.
Flu Activity Sporadic
METAR KNUQ 050556Z 26004KT 10SM CLR 12/07 A3000 RMK AO2 SLP159 T01170067 10183 20111 50005

More Conditions Fewer Conditions

Nepal has a long way to go to dig out and rebuild from a devastating earthquake. We have teamed up with several charities and organizations to make contributing to the relief effort as easy as possible.
How you can help: Portlight Strategies | Red Cross

10-Day Weather Forecast

Almanac

Astronomy

May. 04, 2015 Rise Set
Actual Time
Civil Twilight
Nautical Twilight
Astronomical Twilight
Moon
Length of Visible Light
Length of Day
Tomorrow will be .
, % of the Moon is Illuminated

Today's Extremes

State Highs State Lows

Community

WunderPhotos

Upload Photos

1,818,814 photos uploaded!

WunderBlogs® & News

Nearby

Air Quality

  Air Quality AQ Index Pollutant
Not available.

Snow Depth

Station Depth Elevation

Earthquake Activity

City Distance Mag. Time & Date
Minimum magnitude displayed is 2.5.

Coastal Water Temperatures

Place Temperature

Stations

Nearby Weather Stations

Station Location Temp. Windchill Dew Point Humidity Wind Precip. Elev Updated Type